Forside
METAR-TAF:

METAR-TAF

Lufthavne :

RAAF Base Amberley

Ipswich, Australien

Breddekreds: 27-38-26S, længdekreds: 152-42-43E, højde: 28 m

Aktuelle vejr

Denne rapport blev lavet for 24 minutter siden, kl. 07:30 UTC
Vind 14 kt fra østnordøst
Temperatur 24°C
Fugtighed 65%
Tryk 1013 hPa
Sigt 10 km eller mere
Nogle få skyer i en højde af 5000 ft

METAR: YAMB 220730Z 07014KT 9999 FEW050 24/17 Q1013 NOSIG

Tid: 17:54 (07:54 UTC)

Vejrudsigter

Denne rapport blev lavet for 2 timer og 7 minutter siden, kl. 05:47 UTC
Foreløbig gælder fra 22 på 06 UTC til 22 på 24 UTC
Vind 13 kt fra østnordøst
Sigt 10 km eller mere
Spredte skyer i en højde af 5500 ft
Fra 22 på 0900 UTC
Vind 3 kt fra varierende retninger
Sigt 10 km eller mere
Spredte skyer i en højde af 3000 ft
Sandsynlighed 30%
fra 22 på 14 UTC til 22 på 22 UTC
Sigt: 0600 m
tåge

TAF: YAMB 220547Z 2206/2224 06013KT 9999 SCT055 FM220900 VRB03KT 9999 SCT030 PROB30 2214/2222 0600 FG

Vejrobservationer og prognoser fra mere end 4000 lufthavne (METAR og TAF).

De gule og røde prikker repræsenterer de meteorologiske stationer.

Flyt musen over at se navnet på stationen.

Så klik over at se vejr observationer og prognoser.

At skifte det kort: Klik på de grønne knapper med et sort kors for at zoome ind; på den grønne knap med en bindestreg for at zoome ud; eller på de grønne pile for tilstødende kort.


METAR-TAF: